• Join FlightAware (Why Join?)
  • Login
  • US Flag 
12:42PM EDT


 

Airport Tracker/Info


-or-


 

Live Flight TrackerFlight Track Log ✈ GLA195 ✈ 30-Jun-2013 ✈ KIWD - KMSP

Flight Track Log - Related Links

Times and Time Zones

All times are in EDT time to prevent confusion due to time zone crossing. See the GLA195 flight status page for this flight to view local times or setup timezone preferences in your user account.

Time Position Orientation Groundspeed Altitude Reporting Facility
EDT Latitude Longitude Course Direction KTS MPH feet Rate Location/Type
05:44PM 46.4381 -90.2086 198° South 175 201 7,100  Level Minneapolis Center
05:46PM 46.3831 -90.2575 212° Southwest 192 221 9,600 2,100 Climbing Minneapolis Center
05:47PM 46.3331 -90.3019 212° Southwest 206 237 11,500 1,800 Climbing Minneapolis Center
05:48PM 46.2844 -90.3508 215° Southwest 213 245 13,400 1,740 Climbing Minneapolis Center
05:49PM 46.2264 -90.3906 205° Southwest 224 258 15,100 1,200 Climbing Minneapolis Center
05:50PM 46.1628 -90.4336 205° Southwest 247 284 16,000 420 Climbing Minneapolis Center
05:51PM 46.0944 -90.4839 207° Southwest 267 307 16,000  Level Minneapolis Center
05:52PM 46.0058 -90.5508 208° Southwest 292 336 16,000 -60 Level Minneapolis Center
05:53PM 45.9331 -90.6014 206° Southwest 295 339 15,900  Descending Minneapolis Center
05:54PM 45.8594 -90.6636 210° Southwest 303 349 16,000 60 Climbing Minneapolis Center
05:55PM 45.8019 -90.7461 225° Southwest 300 345 16,100  Climbing Minneapolis Center
05:56PM 45.7444 -90.8308 226° Southwest 297 342 16,000 -60 Descending Minneapolis Center
05:57PM 45.6875 -90.9169 227° Southwest 300 345 16,000  Level Minneapolis Center
05:58PM 45.6192 -91.0181 226° Southwest 296 341 16,000  Level Minneapolis Center
05:59PM 45.5636 -91.1058 228° Southwest 298 343 16,100  Climbing Minneapolis Center
06:00PM 45.5133 -91.1967 232° Southwest 296 341 16,000  Descending Minneapolis Center
06:01PM 45.4628 -91.2856 231° Southwest 293 337 16,100  Climbing Minneapolis Center
06:02PM 45.4108 -91.3731 230° Southwest 290 334 16,000 -120 Descending Minneapolis Center
06:03PM 45.3511 -91.4831 232° Southwest 292 336 15,900 -420 Descending Minneapolis Center
06:04PM 45.2914 -91.5997 234° Southwest 299 344 15,200 -780 Descending Minneapolis Center
06:05PM 45.2400 -91.6981 233° Southwest 305 351 14,300 -1,020 Descending Minneapolis Center
06:06PM 45.1867 -91.7992 233° Southwest 315 362 13,100 -1,080 Descending Minneapolis Center
06:07PM 45.1394 -91.8994 236° Southwest 308 354 12,100 -1,080 Descending Minneapolis Center
06:08PM 45.1019 -92.0039 243° Southwest 301 346 10,900 -1,500 Descending Minneapolis Center
06:09PM 45.0772 -92.1364 255° West 291 335 9,100 -1,620 Descending Minneapolis Center
06:11PM 45.0583 -92.2431 256° West 281 323 7,300 -960 Descending Minneapolis Center
06:12PM 45.0358 -92.3631 255° West 267 307 7,000 -300 Descending Minneapolis Center
06:13PM 45.0175 -92.4650 256° West 268 308 6,700 -780 Descending Minneapolis Center
06:14PM 44.9894 -92.5572 247° West 258 297 5,500 -1,140 Descending Minneapolis Center
06:15PM 44.9472 -92.6356 233° Southwest 252 290 4,400 -780 Descending Minneapolis Center
06:16PM 44.9103 -92.7389 243° Southwest 246 283 3,900 -240 Descending Minneapolis Center
06:17PM 44.8778 -92.8206 241° Southwest 241 277 4,000  Climbing Minneapolis Center
06:18PM 44.8433 -92.9069 241° Southwest 251 289 3,900 -60 Descending Minneapolis Center
06:19PM 44.8472 -92.9969 274° West 233 268 3,900 -480 Level Minneapolis Center
06:20PM 44.8531 -93.0672 277° West 229 264 3,000 -1,260 Descending Minneapolis Center
06:21PM 44.8694 -93.1672 283° West 169 194 1,300 -1,620 Descending Minneapolis Center
06:23PM 44.8667 -93.2167 245° Southwest  Level FlightAware Approximate
06:30PM 44.8820 -93.2218 245° Southwest  Level Estimated
06:31PM 44.8820 -93.2218 245° Southwest  Level Estimated